Time;durP1;ratioP1;P1;durP2;ratioP2;P2;SDS_P1;SDS_P2;PMS_P1;PMS_P2;Temp;Humidity;BMP_temperature;BMP_pressure;BME280_temperature;BME280_humidity;BME280_pressure;Samples;Min_cycle;Max_cycle;Signal;HPM_P1;HPM_P2
2022/12/24 00:00:21;;;;;;;0.95;0.57;;;;;;;9.42;100.00;95294.50;1026093;28;20046;-71
2022/12/24 00:00:55;;;;;;;0.73;0.45;;;;;;;9.48;100.00;95309.16;1029989;28;20027;-71
2022/12/24 00:01:26;;;;;;;0.75;0.50;;;;;;;9.34;100.00;95292.44;1030807;28;20037;-70
2022/12/24 00:01:56;;;;;;;1.85;0.32;;;;;;;9.42;100.00;95299.72;1036181;28;20730;-73
2022/12/24 00:02:27;;;;;;;3.95;0.50;;;;;;;9.45;100.00;95305.22;1041799;28;20032;-72
2022/12/24 00:02:57;;;;;;;1.55;0.70;;;;;;;9.43;100.00;95296.06;1034142;28;20093;-71
2022/12/24 00:03:28;;;;;;;0.65;0.65;;;;;;;9.42;100.00;95310.19;1022304;29;20024;-71
2022/12/24 00:03:58;;;;;;;1.15;0.52;;;;;;;9.44;100.00;95310.72;1033993;28;20470;-73
2022/12/24 00:04:29;;;;;;;0.73;0.60;;;;;;;9.38;100.00;95309.94;1034482;28;20041;-71
2022/12/24 00:04:59;;;;;;;0.55;0.40;;;;;;;9.34;100.00;95297.66;1032197;28;20033;-71
2022/12/24 00:05:30;;;;;;;1.75;0.57;;;;;;;9.41;100.00;95308.63;1028133;28;20074;-72
2022/12/24 00:06:07;;;;;;;3.63;0.57;;;;;;;9.36;100.00;95295.56;1030017;28;20041;-73
2022/12/24 00:06:37;;;;;;;2.97;0.52;;;;;;;9.33;100.00;95302.13;1030152;28;20034;-70
2022/12/24 00:07:08;;;;;;;0.95;0.50;;;;;;;9.26;100.00;95291.13;1032572;28;20273;-70
2022/12/24 00:07:38;;;;;;;0.52;0.52;;;;;;;9.29;100.00;95300.28;1026111;28;20099;-71
2022/12/24 00:08:09;;;;;;;0.77;0.50;;;;;;;9.32;100.00;95297.94;1022368;29;20098;-71
2022/12/24 00:08:40;;;;;;;1.83;0.60;;;;;;;9.26;100.00;95299.00;1026254;28;20508;-70
2022/12/24 00:09:10;;;;;;;0.52;0.45;;;;;;;9.20;100.00;95308.69;1034367;28;20033;-71
2022/12/24 00:09:41;;;;;;;0.55;0.45;;;;;;;9.18;100.00;95309.97;1038204;28;20642;-72
2022/12/24 00:10:11;;;;;;;2.25;0.40;;;;;;;9.18;100.00;95320.44;1025973;28;20043;-71
2022/12/24 00:10:42;;;;;;;1.38;0.60;;;;;;;9.17;100.00;95319.66;1028883;28;20039;-71
2022/12/24 00:11:13;;;;;;;2.67;0.50;;;;;;;9.16;100.00;95312.09;1026000;28;20098;-74
2022/12/24 00:11:43;;;;;;;1.30;0.65;;;;;;;9.18;100.00;95305.53;1026576;28;20579;-70
2022/12/24 00:12:14;;;;;;;0.95;0.52;;;;;;;9.18;100.00;95308.16;1029984;28;20033;-70
2022/12/24 00:12:44;;;;;;;0.82;0.57;;;;;;;9.16;100.00;95312.09;1026203;28;20060;-71
2022/12/24 00:13:15;;;;;;;1.20;0.70;;;;;;;9.16;100.00;95306.88;1030007;28;20034;-72
2022/12/24 00:13:45;;;;;;;4.05;0.63;;;;;;;9.14;100.00;95303.72;1030326;28;20052;-69
2022/12/24 00:14:16;;;;;;;0.55;0.30;;;;;;;9.10;100.00;95300.84;1034116;28;20060;-71
2022/12/24 00:14:46;;;;;;;0.55;0.50;;;;;;;9.09;100.00;95301.91;1034298;28;20041;-71
2022/12/24 00:15:17;;;;;;;2.00;0.60;;;;;;;9.09;100.00;95296.66;1029742;28;20089;-72
2022/12/24 00:15:47;;;;;;;1.08;0.55;;;;;;;9.01;100.00;95289.31;1029294;28;20030;-72
2022/12/24 00:16:18;;;;;;;1.38;0.50;;;;;;;9.02;100.00;95293.53;1030092;28;20026;-71
2022/12/24 00:16:48;;;;;;;0.50;0.30;;;;;;;9.03;100.00;95296.94;1030112;28;20441;-71
2022/12/24 00:17:19;;;;;;;2.20;0.60;;;;;;;9.13;100.00;95294.31;1029667;28;20089;-72
2022/12/24 00:17:49;;;;;;;1.63;0.52;;;;;;;9.10;100.00;95292.97;1022346;28;20049;-70
2022/12/24 00:18:20;;;;;;;2.67;0.68;;;;;;;9.11;100.00;95297.16;1030158;28;20492;-70
2022/12/24 00:18:50;;;;;;;2.25;0.70;;;;;;;9.11;100.00;95305.00;1026200;28;20035;-72
2022/12/24 00:19:21;;;;;;;2.35;0.60;;;;;;;9.11;100.00;95299.00;1018601;29;20075;-73
2022/12/24 00:19:51;;;;;;;1.95;0.70;;;;;;;9.02;100.00;95290.91;1022804;29;20031;-70
2022/12/24 00:20:23;;;;;;;0.80;0.40;;;;;;;9.06;100.00;95302.41;1022910;29;20027;-71
2022/12/24 00:20:54;;;;;;;1.23;0.40;;;;;;;9.05;100.00;95289.59;1023429;28;20093;-71
2022/12/24 00:21:24;;;;;;;1.02;0.60;;;;;;;9.05;100.00;95294.81;1026906;28;20871;-71
2022/12/24 00:21:55;;;;;;;0.82;0.50;;;;;;;9.03;100.00;95292.47;1027233;28;20516;-71
2022/12/24 00:22:25;;;;;;;2.50;0.47;;;;;;;9.05;100.00;95295.59;1026819;28;20037;-72
2022/12/24 00:22:56;;;;;;;2.28;0.40;;;;;;;9.03;100.00;95286.47;1030794;28;20038;-70
2022/12/24 00:23:26;;;;;;;1.77;0.50;;;;;;;9.04;100.00;95293.25;1031001;28;20042;-71
2022/12/24 00:23:56;;;;;;;0.50;0.35;;;;;;;9.05;100.00;95292.97;1030972;28;20030;-71
2022/12/24 00:24:27;;;;;;;1.17;0.60;;;;;;;9.07;100.00;95295.34;1035208;28;20026;-72
2022/12/24 00:24:57;;;;;;;0.77;0.43;;;;;;;9.10;100.00;95294.81;1039233;28;20551;-72
2022/12/24 00:25:28;;;;;;;0.50;0.50;;;;;;;9.06;100.00;95293.78;1034752;28;20042;-70
2022/12/24 00:25:58;;;;;;;1.77;0.93;;;;;;;9.09;100.00;95299.28;1033129;28;20815;-70
2022/12/24 00:26:29;;;;;;;0.63;0.50;;;;;;;9.12;100.00;95298.75;1035021;28;20037;-71
2022/12/24 00:26:59;;;;;;;0.77;0.50;;;;;;;9.05;100.00;95300.84;1027048;28;20035;-74
2022/12/24 00:27:30;;;;;;;1.70;0.80;;;;;;;9.08;100.00;95305.53;1032184;28;20571;-69
2022/12/24 00:28:00;;;;;;;3.28;0.90;;;;;;;9.05;100.00;95302.66;1034705;28;20040;-71
2022/12/24 00:28:31;;;;;;;1.00;0.60;;;;;;;9.01;100.00;95302.41;1035166;28;20491;-71
2022/12/24 00:29:04;;;;;;;2.63;0.60;;;;;;;9.02;100.00;95304.00;1034941;28;20038;-71
2022/12/24 00:29:34;;;;;;;2.45;0.60;;;;;;;8.95;100.00;95300.84;1030870;28;20598;-71
2022/12/24 00:30:07;;;;;;;3.15;0.50;;;;;;;8.97;100.00;95306.59;1026784;28;20262;-71
2022/12/24 00:30:39;;;;;;;0.55;0.50;;;;;;;8.96;100.00;95302.44;1028236;28;20069;-72
2022/12/24 00:31:11;;;;;;;0.68;0.52;;;;;;;8.97;100.00;95309.22;1030042;28;20310;-71
2022/12/24 00:31:41;;;;;;;2.80;0.70;;;;;;;9.09;100.00;95307.13;1035114;28;20268;-71
2022/12/24 00:32:12;;;;;;;1.35;0.60;;;;;;;9.08;100.00;95310.78;1030655;28;20274;-71
2022/12/24 00:32:42;;;;;;;2.58;0.88;;;;;;;9.04;100.00;95307.13;1031395;28;20033;-71
2022/12/24 00:33:13;;;;;;;1.40;0.63;;;;;;;8.97;100.00;95304.78;1030920;28;20038;-71
2022/12/24 00:33:44;;;;;;;2.03;0.52;;;;;;;9.03;100.00;95305.56;1035105;28;20064;-71
2022/12/24 00:34:15;;;;;;;1.13;0.43;;;;;;;9.01;100.00;95305.03;1034826;28;20035;-72
2022/12/24 00:34:45;;;;;;;3.40;0.60;;;;;;;9.03;100.00;95305.56;1029799;28;20396;-71
2022/12/24 00:35:16;;;;;;;1.08;0.82;;;;;;;9.02;100.00;95316.28;1026818;28;20075;-71
2022/12/24 00:35:49;;;;;;;1.83;0.90;;;;;;;8.97;100.00;95304.00;1030303;28;20041;-71
2022/12/24 00:36:19;;;;;;;1.25;0.65;;;;;;;9.02;100.00;95313.66;1031297;28;20182;-70
2022/12/24 00:36:50;;;;;;;0.93;0.60;;;;;;;8.99;100.00;95320.22;1035122;28;20276;-72
2022/12/24 00:37:20;;;;;;;2.15;0.50;;;;;;;8.98;100.00;95323.88;1030857;28;20096;-71
2022/12/24 00:37:51;;;;;;;0.70;0.52;;;;;;;8.95;100.00;95327.00;1030815;28;20026;-71
2022/12/24 00:38:21;;;;;;;1.05;0.45;;;;;;;8.91;100.00;95325.97;1026747;28;20050;-71
2022/12/24 00:38:55;;;;;;;2.55;0.90;;;;;;;8.93;100.00;95326.50;1026957;28;20575;-71
2022/12/24 00:39:25;;;;;;;1.33;0.60;;;;;;;8.93;100.00;95332.50;1026947;28;20029;-71
2022/12/24 00:39:56;;;;;;;1.85;0.65;;;;;;;8.94;100.00;95335.91;1030494;28;20639;-71
2022/12/24 00:40:26;;;;;;;1.40;0.82;;;;;;;8.81;100.00;95316.28;1034905;28;20111;-71
2022/12/24 00:40:59;;;;;;;1.90;0.70;;;;;;;8.88;100.00;95331.72;1034776;28;20439;-71
2022/12/24 00:41:29;;;;;;;1.45;0.55;;;;;;;8.93;100.00;95329.91;1034793;28;20041;-71
2022/12/24 00:42:00;;;;;;;1.50;0.82;;;;;;;8.93;100.00;95324.66;1026598;28;20354;-72
2022/12/24 00:42:30;;;;;;;2.80;0.65;;;;;;;8.84;100.00;95312.34;1027622;28;20031;-72
2022/12/24 00:43:01;;;;;;;1.25;0.65;;;;;;;9.01;100.00;95331.19;1030789;28;20079;-71
2022/12/24 00:43:31;;;;;;;1.08;0.70;;;;;;;9.03;100.00;95330.94;1027000;28;20036;-71
2022/12/24 00:44:04;;;;;;;0.82;0.63;;;;;;;8.99;100.00;95330.69;1030985;28;20065;-71
2022/12/24 00:44:35;;;;;;;1.02;0.60;;;;;;;8.91;100.00;95321.50;1031156;28;20030;-70
2022/12/24 00:45:06;;;;;;;3.45;0.75;;;;;;;8.89;100.00;95321.00;1035076;28;20257;-72
2022/12/24 00:45:36;;;;;;;1.80;0.60;;;;;;;8.96;100.00;95331.22;1030207;28;20102;-72
2022/12/24 00:46:06;;;;;;;0.57;0.45;;;;;;;8.92;100.00;95323.09;1026741;28;20027;-71
2022/12/24 00:46:38;;;;;;;0.88;0.60;;;;;;;8.91;100.00;95320.72;1026787;28;20090;-71
2022/12/24 00:47:09;;;;;;;2.35;0.63;;;;;;;8.95;100.00;95327.81;1025837;28;20015;-73
2022/12/24 00:47:39;;;;;;;1.55;0.60;;;;;;;8.92;100.00;95322.28;1034888;28;20276;-72
2022/12/24 00:48:10;;;;;;;1.42;1.20;;;;;;;8.87;100.00;95324.91;1026831;28;20031;-72
2022/12/24 00:48:40;;;;;;;1.48;0.57;;;;;;;8.85;100.00;95324.38;1030747;28;20033;-70
2022/12/24 00:49:11;;;;;;;0.88;0.70;;;;;;;8.83;100.00;95335.13;1035211;28;20018;-71
2022/12/24 00:49:42;;;;;;;1.27;0.57;;;;;;;8.77;100.00;95327.53;1034980;28;20037;-71
2022/12/24 00:50:12;;;;;;;1.77;0.70;;;;;;;8.77;100.00;95330.16;1032855;28;20061;-72
2022/12/24 00:50:42;;;;;;;2.83;0.88;;;;;;;8.83;100.00;95316.03;1026817;28;20030;-70
2022/12/24 00:51:13;;;;;;;1.95;0.50;;;;;;;8.75;100.00;95312.09;1030787;28;20043;-71
2022/12/24 00:51:44;;;;;;;2.05;0.70;;;;;;;8.81;100.00;95331.19;1034850;28;20487;-71
2022/12/24 00:52:14;;;;;;;0.80;0.80;;;;;;;8.83;100.00;95324.66;1031149;28;20440;-73
2022/12/24 00:52:44;;;;;;;1.75;0.85;;;;;;;8.88;100.00;95323.88;1030665;28;20105;-71
2022/12/24 00:53:16;;;;;;;3.88;0.80;;;;;;;8.85;100.00;95321.78;1026966;28;20030;-71
2022/12/24 00:53:46;;;;;;;0.73;0.63;;;;;;;8.79;100.00;95322.84;1026977;28;20130;-72
2022/12/24 00:54:17;;;;;;;1.58;0.52;;;;;;;8.77;100.00;95330.16;1022781;29;20286;-71
2022/12/24 00:54:47;;;;;;;1.83;0.75;;;;;;;8.75;100.00;95333.00;1018900;29;20103;-71
2022/12/24 00:55:17;;;;;;;0.90;0.70;;;;;;;8.74;100.00;95340.06;1018598;29;20035;-71
2022/12/24 00:55:48;;;;;;;1.85;0.63;;;;;;;8.74;100.00;95342.69;1022265;28;20031;-72
2022/12/24 00:56:19;;;;;;;0.60;0.50;;;;;;;8.74;100.00;95341.91;1030745;28;20673;-70
2022/12/24 00:56:49;;;;;;;2.38;0.80;;;;;;;8.69;100.00;95344.53;1034649;28;20068;-72
2022/12/24 00:57:19;;;;;;;2.85;0.75;;;;;;;8.63;100.00;95335.88;1031017;28;20404;-72
2022/12/24 00:57:50;;;;;;;2.15;0.80;;;;;;;8.65;100.00;95349.50;1018784;29;20035;-71
2022/12/24 00:58:20;;;;;;;1.20;0.80;;;;;;;8.67;100.00;95342.16;1022672;29;20106;-71
2022/12/24 00:58:51;;;;;;;1.60;0.65;;;;;;;8.76;100.00;95341.66;1019065;29;20031;-70
2022/12/24 00:59:21;;;;;;;1.27;0.60;;;;;;;8.75;100.00;95338.25;1022705;29;20031;-71
2022/12/24 00:59:52;;;;;;;1.33;0.50;;;;;;;8.74;100.00;95341.91;1019018;29;20038;-71
2022/12/24 01:00:22;;;;;;;0.93;0.75;;;;;;;8.74;100.00;95344.53;1026789;28;20086;-73
2022/12/24 01:00:53;;;;;;;0.57;0.57;;;;;;;8.77;100.00;95356.31;1027111;28;20497;-72
2022/12/24 01:01:23;;;;;;;0.90;0.70;;;;;;;8.80;100.00;95345.31;1026902;28;20042;-71
2022/12/24 01:01:54;;;;;;;0.77;0.75;;;;;;;8.71;100.00;95337.97;1022756;29;20035;-71
2022/12/24 01:02:27;;;;;;;1.25;0.70;;;;;;;8.76;100.00;95355.53;1030785;28;20026;-70
2022/12/24 01:02:57;;;;;;;1.95;0.60;;;;;;;8.77;100.00;95346.63;1035053;28;20276;-71
2022/12/24 01:03:37;;;;;;;0.65;0.50;;;;;;;8.74;100.00;95355.00;1030653;28;20034;-70
2022/12/24 01:05:12;;;;;;;0.70;0.70;;;;;;;8.76;100.00;95354.75;1034450;28;20360;-70
2022/12/24 01:05:42;;;;;;;2.83;0.90;;;;;;;8.87;100.00;95359.72;1036027;28;20307;-71
2022/12/24 01:06:15;;;;;;;1.20;0.70;;;;;;;8.83;100.00;95360.50;1030718;28;20835;-71
2022/12/24 01:06:46;;;;;;;1.35;0.65;;;;;;;8.87;100.00;95354.47;1022912;29;20058;-71
2022/12/24 01:07:16;;;;;;;2.42;0.80;;;;;;;8.88;100.00;95347.41;1033016;28;20269;-70
2022/12/24 01:07:47;;;;;;;1.83;0.70;;;;;;;8.90;100.00;95361.03;1030631;28;20034;-71
2022/12/24 01:08:17;;;;;;;0.60;0.43;;;;;;;8.86;100.00;95358.16;1034807;28;20088;-70
2022/12/24 01:08:51;;;;;;;1.42;0.82;;;;;;;8.85;100.00;95353.16;1034440;28;20041;-71
2022/12/24 01:09:21;;;;;;;0.90;0.70;;;;;;;8.83;100.00;95355.28;1031022;28;20141;-70
2022/12/24 01:09:52;;;;;;;1.38;0.52;;;;;;;8.85;100.00;95351.34;1027690;28;20266;-71
2022/12/24 01:10:22;;;;;;;0.77;0.60;;;;;;;8.79;100.00;95346.38;1034585;28;20029;-70
2022/12/24 01:10:53;;;;;;;3.10;0.60;;;;;;;8.82;100.00;95358.91;1022852;29;20388;-73
2022/12/24 01:11:23;;;;;;;1.02;0.93;;;;;;;8.77;100.00;95357.09;1018774;28;20300;-70
2022/12/24 01:11:54;;;;;;;1.80;0.60;;;;;;;8.91;100.00;95359.97;1022759;29;20030;-73
2022/12/24 01:12:24;;;;;;;1.80;0.50;;;;;;;8.89;100.00;95351.63;1023032;28;20243;-71
2022/12/24 01:12:55;;;;;;;1.42;0.43;;;;;;;8.97;100.00;95351.09;1026662;28;20031;-71
2022/12/24 01:13:25;;;;;;;0.77;0.60;;;;;;;8.88;100.00;95348.19;1026897;28;20038;-70
2022/12/24 01:13:56;;;;;;;2.13;0.82;;;;;;;8.85;100.00;95346.13;1026813;28;20035;-72
2022/12/24 01:14:26;;;;;;;2.08;0.73;;;;;;;8.91;100.00;95354.75;1026862;28;20035;-71
2022/12/24 01:14:57;;;;;;;0.50;0.50;;;;;;;8.92;100.00;95359.72;1030764;28;20034;-70
2022/12/24 01:15:27;;;;;;;2.63;0.80;;;;;;;8.91;100.00;95355.53;1026474;28;20030;-70
2022/12/24 01:15:58;;;;;;;3.47;0.80;;;;;;;8.86;100.00;95350.31;1034506;28;20057;-71
2022/12/24 01:16:28;;;;;;;2.97;0.90;;;;;;;8.85;100.00;95356.59;1030970;28;20519;-73
2022/12/24 01:16:58;;;;;;;1.65;0.70;;;;;;;8.92;100.00;95359.72;1034772;28;20089;-70
2022/12/24 01:17:32;;;;;;;2.65;0.70;;;;;;;8.90;100.00;95359.19;1034692;28;20104;-72
2022/12/24 01:18:03;;;;;;;1.02;0.70;;;;;;;8.94;100.00;95364.69;1031149;28;20034;-73
2022/12/24 01:18:33;;;;;;;0.88;0.88;;;;;;;8.98;100.00;95365.72;1034776;28;20299;-68
2022/12/24 01:19:04;;;;;;;5.00;2.10;;;;;;;8.93;100.00;95360.50;1035399;28;20087;-73
2022/12/24 01:19:34;;;;;;;1.52;0.80;;;;;;;8.94;100.00;95369.94;1030784;28;20041;-71
2022/12/24 01:20:06;;;;;;;2.60;0.70;;;;;;;8.88;100.00;95358.66;1030107;28;20088;-68
2022/12/24 01:20:36;;;;;;;1.25;0.90;;;;;;;8.92;100.00;95374.63;1022691;28;20027;-72
2022/12/24 01:21:07;;;;;;;0.80;0.60;;;;;;;8.94;100.00;95380.38;1022925;28;20271;-70
2022/12/24 01:21:37;;;;;;;1.55;0.65;;;;;;;8.92;100.00;95370.19;1022939;28;20086;-71
2022/12/24 01:22:08;;;;;;;1.75;0.80;;;;;;;8.87;100.00;95377.25;1026881;28;20748;-71
2022/12/24 01:22:38;;;;;;;1.55;0.80;;;;;;;8.86;100.00;95370.44;1030684;28;20034;-71
2022/12/24 01:23:09;;;;;;;1.52;0.60;;;;;;;8.79;100.00;95367.31;1030886;28;20034;-74
2022/12/24 01:23:39;;;;;;;0.50;0.50;;;;;;;8.74;100.00;95368.06;1034899;28;20464;-72
2022/12/24 01:24:13;;;;;;;1.08;0.80;;;;;;;8.71;100.00;95366.75;1034549;28;20610;-70
2022/12/24 01:24:44;;;;;;;0.77;0.63;;;;;;;8.67;100.00;95360.47;1031261;28;20033;-70
2022/12/24 01:25:14;;;;;;;0.90;0.73;;;;;;;8.71;100.00;95364.13;1030512;28;20287;-71
2022/12/24 01:25:45;;;;;;;2.70;0.85;;;;;;;8.72;100.00;95365.72;1029468;28;20435;-71
2022/12/24 01:26:15;;;;;;;2.22;0.82;;;;;;;8.79;100.00;95372.53;1026810;28;20018;-71
2022/12/24 01:26:46;;;;;;;0.60;0.60;;;;;;;8.73;100.00;95369.13;1022644;28;20027;-72
2022/12/24 01:27:16;;;;;;;0.63;0.50;;;;;;;8.70;100.00;95378.25;1027003;28;20519;-71
2022/12/24 01:27:47;;;;;;;1.35;0.70;;;;;;;8.67;100.00;95367.53;1030122;28;20029;-71
2022/12/24 01:28:18;;;;;;;0.52;0.52;;;;;;;8.64;100.00;95368.06;1034719;28;20496;-71
2022/12/24 01:28:48;;;;;;;2.90;0.80;;;;;;;8.74;100.00;95374.09;1031134;28;20026;-72
2022/12/24 01:29:19;;;;;;;2.05;0.70;;;;;;;8.71;100.00;95371.19;1030326;28;20277;-71
2022/12/24 01:29:49;;;;;;;1.65;0.50;;;;;;;8.69;100.00;95381.16;1026810;28;20027;-70
2022/12/24 01:30:20;;;;;;;1.58;0.68;;;;;;;8.74;100.00;95379.31;1026767;28;20019;-71
2022/12/24 01:30:50;;;;;;;2.92;0.77;;;;;;;8.76;100.00;95386.13;1030350;28;20023;-71
2022/12/24 01:31:20;;;;;;;1.20;0.47;;;;;;;8.83;100.00;95382.22;1030946;28;20507;-74
2022/12/24 01:31:51;;;;;;;0.68;0.68;;;;;;;8.80;100.00;95389.81;1030314;28;20131;-71
2022/12/24 01:32:21;;;;;;;0.93;0.80;;;;;;;8.85;100.00;95374.91;1026422;28;20027;-72
2022/12/24 01:32:52;;;;;;;2.55;0.98;;;;;;;8.85;100.00;95376.72;1027143;28;20026;-72
2022/12/24 01:33:22;;;;;;;1.17;0.70;;;;;;;8.83;100.00;95382.22;1030550;28;20034;-70
2022/12/24 01:33:53;;;;;;;0.75;0.60;;;;;;;8.86;100.00;95380.91;1034673;28;20033;-72
2022/12/24 01:34:23;;;;;;;1.30;0.68;;;;;;;8.87;100.00;95388.50;1035102;28;20026;-71
2022/12/24 01:34:54;;;;;;;1.52;0.63;;;;;;;8.94;100.00;95383.00;1034668;28;20515;-71
2022/12/24 01:35:24;;;;;;;1.13;0.75;;;;;;;8.88;100.00;95384.03;1034749;28;20025;-73
2022/12/24 01:35:54;;;;;;;0.63;0.43;;;;;;;8.87;100.00;95377.25;1026385;28;20034;-71
2022/12/24 01:36:25;;;;;;;2.63;0.77;;;;;;;8.89;100.00;95380.41;1022500;28;20079;-72
2022/12/24 01:36:55;;;;;;;0.73;0.40;;;;;;;8.82;100.00;95385.88;1026981;28;20034;-70
2022/12/24 01:37:26;;;;;;;2.35;0.50;;;;;;;8.83;100.00;95384.06;1030763;28;20034;-71
2022/12/24 01:37:56;;;;;;;2.55;0.98;;;;;;;8.83;100.00;95387.44;1026625;28;20077;-71
2022/12/24 01:38:27;;;;;;;2.53;1.00;;;;;;;8.78;100.00;95384.03;1030695;28;20030;-72
2022/12/24 01:38:57;;;;;;;4.07;0.70;;;;;;;8.77;100.00;95382.47;1030718;28;20030;-71
2022/12/24 01:39:28;;;;;;;2.50;0.73;;;;;;;8.71;100.00;95374.59;1030911;28;20772;-72
2022/12/24 01:43:23;;;;;;;6.22;0.65;;;;;;;8.77;100.00;95385.88;1038693;28;20676;-70
2022/12/24 01:43:54;;;;;;;1.50;0.80;;;;;;;8.88;100.00;95395.28;1030871;28;20273;-72
2022/12/24 01:44:30;;;;;;;0.75;0.50;;;;;;;8.83;100.00;95397.13;1026649;28;20668;-70
2022/12/24 01:45:40;;;;;;;0.63;0.50;;;;;;;8.86;100.00;95401.84;1027848;28;20026;-71
2022/12/24 01:46:17;;;;;;;1.70;0.50;;;;;;;8.79;100.00;95401.31;1040812;28;20334;-70
2022/12/24 01:46:49;;;;;;;0.52;0.30;;;;;;;8.83;100.00;95400.53;1038559;28;20371;-74
2022/12/24 01:47:24;;;;;;;1.27;0.60;;;;;;;8.82;100.00;95400.78;1029629;28;20276;-71
2022/12/24 01:47:54;;;;;;;1.27;0.70;;;;;;;8.86;100.00;95396.63;1026920;28;20324;-70
2022/12/24 01:48:52;;;;;;;1.38;0.80;;;;;;;8.92;100.00;95400.78;1030468;28;20280;-70
2022/12/24 01:49:22;;;;;;;0.90;0.85;;;;;;;8.84;100.00;95398.69;1030818;28;20057;-71
2022/12/24 01:49:57;;;;;;;1.30;0.70;;;;;;;8.85;100.00;95392.41;1026484;28;20262;-72
2022/12/24 01:50:28;;;;;;;0.60;0.52;;;;;;;8.87;100.00;95390.34;1026864;28;20512;-73
2022/12/24 01:51:11;;;;;;;1.50;0.55;;;;;;;8.84;100.00;95403.94;1026521;28;20286;-71
2022/12/24 01:51:52;;;;;;;1.35;0.70;;;;;;;8.78;100.00;95397.88;1030499;28;20034;-71
2022/12/24 01:52:28;;;;;;;0.93;0.70;;;;;;;8.74;100.00;95392.41;1036495;28;20300;-71
2022/12/24 01:52:59;;;;;;;0.60;0.50;;;;;;;8.76;100.00;95394.75;1030599;28;20257;-71
2022/12/24 01:53:30;;;;;;;4.05;0.50;;;;;;;8.80;100.00;95390.59;1032750;28;20285;-71
2022/12/24 01:54:06;;;;;;;2.67;0.82;;;;;;;8.80;100.00;95397.66;1031501;28;20038;-72
2022/12/24 01:54:46;;;;;;;1.05;0.50;;;;;;;8.76;100.00;95396.59;1026999;28;20026;-71
2022/12/24 01:55:17;;;;;;;1.75;0.65;;;;;;;8.74;100.00;95404.69;1022140;29;20278;-71
2022/12/24 01:55:50;;;;;;;2.45;0.88;;;;;;;8.68;100.00;95390.81;1032497;28;20030;-71
2022/12/24 01:56:20;;;;;;;1.63;0.80;;;;;;;8.67;100.00;95391.84;1032931;28;20825;-71
2022/12/24 01:56:57;;;;;;;0.77;0.57;;;;;;;8.74;100.00;95395.00;1026498;28;20023;-71
2022/12/24 01:57:34;;;;;;;2.13;0.70;;;;;;;8.64;100.00;95395.00;1026647;28;20535;-70
2022/12/24 01:58:04;;;;;;;0.55;0.50;;;;;;;8.65;100.00;95396.59;1026422;28;20280;-72
2022/12/24 01:58:35;;;;;;;0.80;0.60;;;;;;;8.64;100.00;95400.22;1027432;28;20278;-71
2022/12/24 01:59:07;;;;;;;1.52;0.43;;;;;;;8.70;100.00;95401.81;1038755;28;20075;-71
2022/12/24 01:59:37;;;;;;;3.40;0.75;;;;;;;8.61;100.00;95400.72;1030143;28;20026;-71
2022/12/24 02:00:09;;;;;;;0.57;0.57;;;;;;;8.69;100.00;95410.72;1026614;28;20329;-71
2022/12/24 02:00:40;;;;;;;4.32;0.65;;;;;;;8.66;100.00;95413.84;1026996;28;20043;-71
2022/12/24 02:01:10;;;;;;;0.93;0.55;;;;;;;8.62;100.00;95412.78;1026622;28;20751;-73
2022/12/24 02:01:41;;;;;;;0.85;0.47;;;;;;;8.62;100.00;95412.78;1022806;28;20034;-70
2022/12/24 02:02:11;;;;;;;2.17;0.77;;;;;;;8.65;100.00;95406.22;1025263;28;20079;-72
2022/12/24 02:02:44;;;;;;;1.55;0.77;;;;;;;8.63;100.00;95414.34;1030542;28;20030;-71
2022/12/24 02:03:14;;;;;;;0.75;0.50;;;;;;;8.62;100.00;95417.25;1035083;28;20530;-73
2022/12/24 02:03:44;;;;;;;0.52;0.52;;;;;;;8.70;100.00;95416.72;1038480;28;20280;-72
2022/12/24 02:04:43;;;;;;;0.52;0.50;;;;;;;8.72;100.00;95420.66;1026568;28;20018;-69
2022/12/24 02:05:18;;;;;;;0.77;0.40;;;;;;;8.65;100.00;95422.75;1022491;29;20556;-70
2022/12/24 02:05:52;;;;;;;1.73;0.60;;;;;;;8.62;100.00;95425.88;1021864;29;20272;-70
2022/12/24 02:06:23;;;;;;;1.65;0.90;;;;;;;8.59;100.00;95426.38;1022538;29;20279;-70
2022/12/24 02:06:53;;;;;;;1.35;0.63;;;;;;;8.56;100.00;95429.50;1018670;29;20342;-70
2022/12/24 02:07:24;;;;;;;2.08;0.55;;;;;;;8.58;100.00;95418.78;1018542;29;20393;-71
2022/12/24 02:07:55;;;;;;;1.92;0.73;;;;;;;8.57;100.00;95414.59;1022243;29;20062;-71
2022/12/24 02:08:38;;;;;;;5.18;1.33;;;;;;;8.48;100.00;95422.13;1030840;28;20147;-71
2022/12/24 02:09:09;;;;;;;0.50;0.50;;;;;;;8.52;100.00;95423.22;1030582;28;20265;-72
2022/12/24 02:09:39;;;;;;;2.17;0.75;;;;;;;8.57;100.00;95430.28;1030562;28;20265;-70
2022/12/24 02:10:11;;;;;;;1.15;0.60;;;;;;;8.65;100.00;95432.38;1028884;28;20029;-70
2022/12/24 02:10:41;;;;;;;1.27;0.50;;;;;;;8.70;100.00;95425.34;1032236;28;20030;-70
2022/12/24 02:11:16;;;;;;;2.55;0.60;;;;;;;8.73;100.00;95429.28;1034683;28;20623;-71
2022/12/24 02:11:47;;;;;;;2.97;0.47;;;;;;;8.79;100.00;95427.47;1030458;28;20053;-70
2022/12/24 02:12:17;;;;;;;2.03;0.63;;;;;;;8.73;100.00;95435.31;1026209;28;20885;-71
2022/12/24 02:12:48;;;;;;;0.50;0.50;;;;;;;8.76;100.00;95428.00;1030416;28;20053;-72
2022/12/24 02:13:19;;;;;;;1.42;0.80;;;;;;;8.72;100.00;95431.13;1026339;28;20097;-70
2022/12/24 02:13:51;;;;;;;1.30;0.50;;;;;;;8.88;100.00;95428.53;1026488;28;20035;-71
2022/12/24 02:14:21;;;;;;;1.05;0.50;;;;;;;8.93;100.00;95428.53;1026360;28;20485;-70
2022/12/24 02:14:52;;;;;;;2.28;0.75;;;;;;;8.90;100.00;95423.81;1030286;28;20442;-70
2022/12/24 02:15:23;;;;;;;0.60;0.60;;;;;;;8.83;100.00;95415.44;1027651;28;20425;-70
2022/12/24 02:16:30;;;;;;;3.00;0.65;;;;;;;8.83;100.00;95423.28;1023248;28;20083;-70
2022/12/24 02:17:06;;;;;;;0.80;0.43;;;;;;;8.76;100.00;95417.53;1026275;28;20065;-70
2022/12/24 02:18:13;;;;;;;0.90;0.65;;;;;;;8.70;100.00;95404.44;1033763;28;20754;-69
2022/12/24 02:18:43;;;;;;;0.60;0.60;;;;;;;8.77;100.00;95413.84;1031926;28;20297;-71
2022/12/24 02:19:39;;;;;;;2.50;0.47;;;;;;;8.76;100.00;95415.69;1032376;28;20253;-70
2022/12/24 02:20:31;;;;;;;3.15;0.70;;;;;;;8.71;100.00;95410.44;1032337;28;20535;-70
2022/12/24 02:21:13;;;;;;;0.75;0.52;;;;;;;8.74;100.00;95413.31;1030116;28;20774;-70
2022/12/24 02:21:49;;;;;;;0.90;0.70;;;;;;;8.69;100.00;95408.09;1027271;28;20266;-70
2022/12/24 02:22:27;;;;;;;2.85;0.98;;;;;;;8.65;100.00;95420.13;1022966;29;20656;-72
2022/12/24 02:23:25;;;;;;;2.28;0.60;;;;;;;8.70;100.00;95414.88;1025461;28;20297;-71
2022/12/24 02:24:01;;;;;;;1.02;0.55;;;;;;;8.68;100.00;95418.78;1031807;28;20265;-70
2022/12/24 02:24:44;;;;;;;2.58;0.52;;;;;;;8.67;100.00;95420.63;1027441;28;20282;-70
2022/12/24 02:25:37;;;;;;;1.13;0.60;;;;;;;8.68;100.00;95422.19;1034933;28;20264;-72
2022/12/24 02:26:32;;;;;;;1.60;0.60;;;;;;;8.70;100.00;95427.97;1022342;29;20354;-71
2022/12/24 02:27:08;;;;;;;0.40;0.40;;;;;;;8.67;100.00;95425.88;1034631;28;20347;-70
2022/12/24 02:27:56;;;;;;;0.95;0.73;;;;;;;8.66;100.00;95426.91;1035267;28;20261;-70
2022/12/24 02:28:36;;;;;;;1.42;0.57;;;;;;;8.65;100.00;95427.97;1027039;28;20277;-70
2022/12/24 02:29:33;;;;;;;0.93;0.55;;;;;;;8.62;100.00;95435.53;1027233;28;20317;-72
2022/12/24 02:30:15;;;;;;;0.60;0.60;;;;;;;8.70;100.00;95433.19;1026842;28;20267;-70
2022/12/24 02:30:47;;;;;;;1.83;1.00;;;;;;;8.73;100.00;95435.31;1025093;28;20764;-71
2022/12/24 02:31:33;;;;;;;1.23;0.52;;;;;;;8.77;100.00;95429.56;1027165;28;20361;-70
2022/12/24 02:32:23;;;;;;;3.00;0.73;;;;;;;8.69;100.00;95438.69;1027262;28;20350;-72
2022/12/24 02:32:59;;;;;;;1.38;0.65;;;;;;;8.64;100.00;95426.38;1031579;28;20860;-70
2022/12/24 02:33:31;;;;;;;1.50;0.80;;;;;;;8.68;100.00;95432.66;1031362;28;20306;-70
2022/12/24 02:34:15;;;;;;;1.95;0.70;;;;;;;8.76;100.00;95430.59;1031075;28;20810;-71
2022/12/24 02:34:54;;;;;;;2.20;0.60;;;;;;;8.72;100.00;95428.50;1034931;28;20272;-70
2022/12/24 02:35:45;;;;;;;0.77;0.68;;;;;;;8.65;100.00;95430.59;1038656;28;20355;-70
2022/12/24 02:36:22;;;;;;;1.23;0.50;;;;;;;8.64;100.00;95431.59;1035290;28;20256;-70
2022/12/24 02:37:09;;;;;;;1.15;0.70;;;;;;;8.66;100.00;95437.38;1027082;28;20862;-70
2022/12/24 02:37:43;;;;;;;1.50;0.77;;;;;;;8.71;100.00;95426.13;1023288;29;20274;-71
2022/12/24 02:38:21;;;;;;;1.38;0.50;;;;;;;8.67;100.00;95433.72;1027101;28;20601;-71
2022/12/24 02:38:59;;;;;;;2.38;0.55;;;;;;;8.68;100.00;95435.28;1027257;28;20274;-71
2022/12/24 02:39:37;;;;;;;1.45;0.73;;;;;;;8.77;100.00;95432.16;1021968;29;20275;-73
2022/12/24 02:40:17;;;;;;;0.70;0.50;;;;;;;8.79;100.00;95437.94;1025668;28;20262;-71